Time;durP1;ratioP1;P1;durP2;ratioP2;P2;SDS_P1;SDS_P2;PMS_P1;PMS_P2;Temp;Humidity;BMP_temperature;BMP_pressure;BME280_temperature;BME280_humidity;BME280_pressure;Samples;Min_cycle;Max_cycle;Signal;HPM_P1;HPM_P2
2022/12/14 00:01:57;;;;;;;21.73;11.02;;;;;;;-6.44;100.00;99868.97;6198364;28;20084;-92
2022/12/14 00:04:58;;;;;;;23.13;11.45;;;;;;;-6.43;100.00;99859.75;6203788;28;20164;-93
2022/12/14 00:08:00;;;;;;;22.02;10.65;;;;;;;-6.43;100.00;99859.75;6209873;28;20281;-92
2022/12/14 00:11:02;;;;;;;25.38;10.73;;;;;;;-6.45;100.00;99857.28;6203515;28;20046;-92
2022/12/14 00:14:04;;;;;;;21.17;10.65;;;;;;;-6.47;100.00;99853.13;6207608;28;20455;-92
2022/12/14 00:17:06;;;;;;;26.92;12.45;;;;;;;-6.45;100.00;99848.91;6210083;28;20476;-92
2022/12/14 00:20:08;;;;;;;23.80;11.35;;;;;;;-6.48;100.00;99847.28;6203808;28;20474;-92
2022/12/14 00:23:10;;;;;;;23.98;12.10;;;;;;;-6.47;100.00;99843.06;6199229;28;20034;-93
2022/12/14 00:26:20;;;;;;;24.63;11.57;;;;;;;-6.51;100.00;99842.28;6220079;28;20511;-92
2022/12/14 00:29:22;;;;;;;26.55;11.48;;;;;;;-6.54;100.00;99843.16;6198712;28;20111;-92
2022/12/14 00:32:23;;;;;;;20.67;10.40;;;;;;;-6.54;100.00;99832.28;6197866;28;20527;-92
2022/12/14 00:35:25;;;;;;;21.13;10.13;;;;;;;-6.55;100.00;99833.16;6205447;28;20353;-92
2022/12/14 00:38:27;;;;;;;17.65;9.20;;;;;;;-6.56;100.00;99834.00;6201211;28;20034;-92
2022/12/14 00:41:29;;;;;;;20.05;10.00;;;;;;;-6.52;100.00;99825.53;6201959;28;20045;-93
2022/12/14 00:44:31;;;;;;;19.23;9.55;;;;;;;-6.50;100.00;99823.81;6187428;28;20065;-93
2022/12/14 00:47:33;;;;;;;21.35;9.88;;;;;;;-6.47;100.00;99828.78;6206000;28;20050;-92
2022/12/14 00:50:42;;;;;;;24.88;10.43;;;;;;;-6.47;100.00;99831.28;6190812;28;20432;-92
2022/12/14 00:53:49;;;;;;;31.38;10.32;;;;;;;-6.47;100.00;99823.75;6200679;28;20520;-93
2022/12/14 00:56:51;;;;;;;20.90;9.48;;;;;;;-6.47;100.00;99821.22;6206434;28;20069;-92
2022/12/14 00:59:52;;;;;;;18.38;9.70;;;;;;;-6.45;100.00;99816.16;6209784;28;20360;-93
2022/12/14 01:02:54;;;;;;;18.20;9.13;;;;;;;-6.43;100.00;99825.34;6202452;28;20261;-92
2022/12/14 01:05:56;;;;;;;20.23;9.15;;;;;;;-6.40;100.00;99824.44;6195209;28;20692;-92
2022/12/14 01:08:58;;;;;;;21.38;9.75;;;;;;;-6.39;100.00;99818.53;6197148;28;20093;-92
2022/12/14 01:12:00;;;;;;;18.45;8.77;;;;;;;-6.41;100.00;99821.13;6195102;28;20516;-92
2022/12/14 01:15:02;;;;;;;20.33;10.13;;;;;;;-6.42;100.00;99821.97;6192183;28;20042;-92
2022/12/14 01:18:04;;;;;;;20.58;9.23;;;;;;;-6.39;100.00;99821.06;6200039;28;20496;-92
2022/12/14 01:21:13;;;;;;;20.80;9.90;;;;;;;-6.36;100.00;99821.00;6189746;28;20429;-92
2022/12/14 01:24:15;;;;;;;17.40;8.85;;;;;;;-6.39;100.00;99821.06;6193892;28;20038;-92
2022/12/14 01:27:17;;;;;;;20.27;9.65;;;;;;;-6.40;100.00;99817.72;6188110;28;20180;-93
2022/12/14 01:30:19;;;;;;;21.42;9.63;;;;;;;-6.42;100.00;99814.41;6187686;28;20046;-92
2022/12/14 01:33:21;;;;;;;19.35;8.80;;;;;;;-6.39;100.00;99816.03;6191556;28;20038;-93
2022/12/14 01:36:26;;;;;;;16.85;9.18;;;;;;;-6.40;100.00;99810.16;6197270;28;20061;-92
2022/12/14 01:39:28;;;;;;;19.05;8.95;;;;;;;-6.42;100.00;99801.81;6186901;28;20050;-93
2022/12/14 01:42:30;;;;;;;18.77;9.93;;;;;;;-6.46;100.00;99800.22;6189912;28;20042;-92
2022/12/14 01:45:31;;;;;;;18.30;9.30;;;;;;;-6.46;100.00;99794.34;6208548;28;20045;-92
2022/12/14 01:48:33;;;;;;;19.40;9.13;;;;;;;-6.48;100.00;99786.84;6209448;28;20050;-93
2022/12/14 01:51:36;;;;;;;19.75;9.00;;;;;;;-6.50;100.00;99784.34;6202404;28;20058;-93
2022/12/14 01:54:44;;;;;;;17.55;8.95;;;;;;;-6.47;100.00;99785.16;6194444;28;20034;-92
2022/12/14 01:57:58;;;;;;;20.23;9.77;;;;;;;-6.48;100.00;99776.78;6209684;28;20074;-93
2022/12/14 02:01:01;;;;;;;16.50;9.05;;;;;;;-6.47;100.00;99775.09;6200824;28;20046;-92
2022/12/14 02:04:04;;;;;;;19.38;8.52;;;;;;;-6.52;100.00;99772.66;6198580;28;20050;-92
2022/12/14 02:07:06;;;;;;;16.95;8.82;;;;;;;-6.57;100.00;99765.22;6205884;28;20050;-92
2022/12/14 02:10:08;;;;;;;21.38;9.45;;;;;;;-6.56;100.00;99763.50;6200198;28;20180;-92
2022/12/14 02:13:22;;;;;;;19.10;9.15;;;;;;;-6.54;100.00;99766.84;6206380;28;20469;-92
2022/12/14 02:16:23;;;;;;;21.10;9.80;;;;;;;-6.53;100.00;99766.00;6195976;28;20041;-92
2022/12/14 02:19:26;;;;;;;19.08;9.25;;;;;;;-6.52;100.00;99765.94;6210748;28;20038;-92
2022/12/14 02:22:46;;;;;;;20.30;8.98;;;;;;;-6.53;100.00;99755.91;6220358;28;20091;-92
2022/12/14 02:26:17;;;;;;;18.85;9.52;;;;;;;-6.55;100.00;99753.44;6212636;28;20053;-92
2022/12/14 02:29:51;;;;;;;18.20;9.70;;;;;;;-6.55;100.00;99753.44;6210254;28;20049;-93
2022/12/14 02:33:27;;;;;;;21.25;9.35;;;;;;;-6.56;100.00;99755.97;6205727;28;20062;-92
2022/12/14 02:36:38;;;;;;;19.83;10.10;;;;;;;-6.58;100.00;99755.19;6199264;28;20423;-93
2022/12/14 02:40:04;;;;;;;22.60;10.10;;;;;;;-6.60;100.00;99744.31;6209736;28;20436;-93
2022/12/14 02:43:31;;;;;;;18.27;9.02;;;;;;;-6.63;100.00;99739.34;6192283;28;20042;-92
2022/12/14 02:47:01;;;;;;;18.20;9.80;;;;;;;-6.67;100.00;99731.03;6203589;28;20049;-92
2022/12/14 02:50:15;;;;;;;19.85;9.52;;;;;;;-6.74;100.00;99732.84;6207738;28;20046;-93
2022/12/14 02:53:37;;;;;;;23.20;10.75;;;;;;;-6.75;100.00;99733.72;6212899;28;20057;-92
2022/12/14 02:56:47;;;;;;;21.27;9.60;;;;;;;-6.79;100.00;99726.25;6207430;28;20045;-93
2022/12/14 02:59:53;;;;;;;19.73;10.63;;;;;;;-6.84;100.00;99715.47;6201370;28;20049;-92
2022/12/14 03:02:57;;;;;;;20.52;9.20;;;;;;;-6.86;100.00;99717.19;6201459;28;20046;-92
2022/12/14 03:06:21;;;;;;;17.17;9.32;;;;;;;-6.92;100.00;99713.13;6192804;28;20050;-93
2022/12/14 03:09:26;;;;;;;21.80;10.70;;;;;;;-6.95;100.00;99713.19;6202710;28;20412;-92
2022/12/14 03:12:28;;;;;;;20.58;10.55;;;;;;;-7.03;100.00;99708.31;6206828;28;20543;-93
2022/12/14 03:15:32;;;;;;;23.45;10.30;;;;;;;-7.07;100.00;99704.19;6201851;28;20489;-92
2022/12/14 03:18:40;;;;;;;21.83;10.52;;;;;;;-7.05;100.00;99711.72;6220076;28;20048;-92
2022/12/14 03:21:49;;;;;;;19.77;10.00;;;;;;;-7.08;100.00;99700.03;6218884;28;20042;-93
2022/12/14 03:25:04;;;;;;;20.33;10.80;;;;;;;-7.13;100.00;99696.75;6214272;28;20282;-92
2022/12/14 03:28:29;;;;;;;22.02;10.45;;;;;;;-7.18;100.00;99684.31;6201247;28;20038;-92
2022/12/14 03:31:45;;;;;;;20.45;10.50;;;;;;;-7.21;100.00;99684.34;6196077;28;20038;-93
2022/12/14 03:35:00;;;;;;;18.50;8.75;;;;;;;-7.24;100.00;99684.41;6199671;28;20043;-92
2022/12/14 03:38:06;;;;;;;20.40;10.40;;;;;;;-7.30;100.00;99674.50;6209963;28;20175;-93
2022/12/14 03:41:19;;;;;;;20.70;9.82;;;;;;;-7.29;100.00;99676.13;6199855;28;20057;-92
2022/12/14 03:44:45;;;;;;;16.00;8.55;;;;;;;-7.28;100.00;99671.94;6208035;28;20121;-92
2022/12/14 03:47:58;;;;;;;21.98;10.32;;;;;;;-7.30;100.00;99658.56;6200625;28;20069;-93
2022/12/14 03:51:37;;;;;;;21.65;10.10;;;;;;;-7.31;100.00;99652.72;6204421;28;20049;-92
2022/12/14 03:55:08;;;;;;;20.25;10.10;;;;;;;-7.37;100.00;99658.69;6203957;28;20635;-92
2022/12/14 03:58:48;;;;;;;16.42;8.90;;;;;;;-7.43;100.00;99653.81;6204903;28;20070;-92
2022/12/14 04:02:12;;;;;;;20.35;9.23;;;;;;;-7.48;100.00;99652.22;6219113;28;20546;-93
2022/12/14 04:05:23;;;;;;;20.88;9.20;;;;;;;-7.52;100.00;99650.63;6201685;28;20065;-93
2022/12/14 04:09:09;;;;;;;17.17;9.40;;;;;;;-7.61;100.00;99642.41;6198810;28;20512;-93
2022/12/14 04:19:23;;;;;;;16.92;9.98;;;;;;;-7.71;100.00;99630.06;6130355;28;20050;-92
2022/12/14 04:22:30;;;;;;;21.95;11.18;;;;;;;-7.71;100.00;99623.34;6135358;28;20528;-93
2022/12/14 04:32:47;;;;;;;19.92;9.52;;;;;;;-7.76;100.00;99630.13;6135555;28;20058;-92
2022/12/14 04:35:52;;;;;;;21.50;10.30;;;;;;;-7.77;100.00;99622.66;6132174;28;20067;-93
2022/12/14 04:39:00;;;;;;;21.52;11.02;;;;;;;-7.80;100.00;99619.34;6129005;28;20050;-92
2022/12/14 04:42:05;;;;;;;19.98;9.98;;;;;;;-7.77;100.00;99618.44;6132843;28;20101;-92
2022/12/14 04:45:15;;;;;;;19.38;9.43;;;;;;;-7.78;100.00;99620.97;6117301;28;20175;-92
2022/12/14 04:48:26;;;;;;;23.95;10.65;;;;;;;-7.82;100.00;99616.00;6167423;28;20061;-93
2022/12/14 04:51:35;;;;;;;;;;;;;;;-7.75;100.00;99610.84;6194067;28;20042;-93
2022/12/14 04:54:47;;;;;;;22.42;10.18;;;;;;;-7.74;100.00;99599.97;6199410;28;19934;-92
2022/12/14 04:58:14;;;;;;;14.93;8.60;;;;;;;-7.68;100.00;99592.31;6210858;28;20049;-93
2022/12/14 05:01:44;;;;;;;25.15;10.30;;;;;;;-7.73;100.00;99594.06;6192951;28;20115;-93
2022/12/14 05:05:20;;;;;;;19.30;9.75;;;;;;;-7.74;100.00;99590.75;6200645;28;20125;-92
2022/12/14 05:09:00;;;;;;;20.80;10.40;;;;;;;-7.73;100.00;99592.38;6200556;28;20046;-92
2022/12/14 05:12:05;;;;;;;20.45;10.15;;;;;;;-7.74;100.00;99592.44;6202856;28;20125;-92
2022/12/14 05:15:18;;;;;;;23.20;10.52;;;;;;;-7.72;100.00;99600.78;6192779;28;20050;-93
2022/12/14 05:18:21;;;;;;;21.13;9.75;;;;;;;-7.71;100.00;99588.16;6204714;28;20042;-92
2022/12/14 05:24:43;;;;;;;21.48;9.95;;;;;;;-7.71;100.00;99575.59;6204341;28;20042;-92
2022/12/14 05:27:45;;;;;;;19.25;9.65;;;;;;;-7.70;100.00;99577.28;6207230;28;20048;-93
2022/12/14 05:30:47;;;;;;;19.48;9.95;;;;;;;-7.72;100.00;99573.16;6202355;28;20041;-92
2022/12/14 05:33:49;;;;;;;21.30;10.02;;;;;;;-7.72;100.00;99563.91;6200639;28;20547;-93
2022/12/14 05:36:51;;;;;;;18.17;10.18;;;;;;;-7.69;100.00;99568.06;6208799;28;20701;-92
2022/12/14 05:39:53;;;;;;;19.25;9.70;;;;;;;-7.73;100.00;99567.28;6212763;28;20042;-92
2022/12/14 05:43:12;;;;;;;21.73;10.48;;;;;;;-7.76;100.00;99566.50;6214338;28;20373;-93
2022/12/14 05:46:13;;;;;;;17.73;9.85;;;;;;;-7.77;100.00;99552.31;6206910;28;20045;-92
2022/12/14 05:49:15;;;;;;;18.23;9.80;;;;;;;-7.75;100.00;99556.44;6211209;28;20090;-92
2022/12/14 05:52:18;;;;;;;16.95;9.30;;;;;;;-7.75;100.00;99555.59;6210178;28;20101;-93
2022/12/14 05:55:20;;;;;;;16.33;8.80;;;;;;;-7.76;100.00;99551.44;6205440;28;20041;-92
2022/12/14 05:58:22;;;;;;;17.90;9.18;;;;;;;-7.78;100.00;99535.56;6197484;28;20092;-92
2022/12/14 06:01:24;;;;;;;20.23;9.75;;;;;;;-7.79;100.00;99539.78;6200007;28;20037;-93
2022/12/14 06:04:26;;;;;;;21.00;9.63;;;;;;;-7.77;100.00;99532.22;6198175;28;20051;-92
2022/12/14 06:07:27;;;;;;;20.45;9.82;;;;;;;-7.78;100.00;99526.34;6206215;28;20481;-92
2022/12/14 06:10:29;;;;;;;18.30;9.85;;;;;;;-7.80;100.00;99518.00;6203124;28;20039;-93
2022/12/14 06:13:31;;;;;;;18.02;8.70;;;;;;;-7.79;100.00;99522.19;6213689;28;20509;-93
2022/12/14 06:16:33;;;;;;;21.85;9.40;;;;;;;-7.78;100.00;99518.81;6198585;28;20057;-93
2022/12/14 06:19:34;;;;;;;20.27;9.27;;;;;;;-7.78;100.00;99515.47;6207576;28;20040;-93
2022/12/14 06:22:36;;;;;;;20.98;10.20;;;;;;;-7.85;100.00;99518.13;6202058;28;20378;-92
2022/12/14 06:25:43;;;;;;;21.42;10.50;;;;;;;-7.87;100.00;99508.97;6219712;28;20046;-92
2022/12/14 06:28:45;;;;;;;19.73;9.68;;;;;;;-7.84;100.00;99502.19;6207700;28;20042;-93
2022/12/14 06:31:47;;;;;;;18.83;9.75;;;;;;;-7.86;100.00;99488.84;6201497;28;20125;-93
2022/12/14 06:34:50;;;;;;;20.65;9.73;;;;;;;-7.86;100.00;99490.53;6209018;28;20049;-92
2022/12/14 06:37:51;;;;;;;17.63;8.88;;;;;;;-7.92;100.00;99490.66;6213941;28;20049;-93
2022/12/14 06:40:53;;;;;;;21.75;9.82;;;;;;;-7.93;100.00;99483.97;6209795;28;20046;-92
2022/12/14 06:43:56;;;;;;;24.80;10.77;;;;;;;-7.92;100.00;99488.16;6212293;28;20148;-92
2022/12/14 06:46:58;;;;;;;23.67;10.85;;;;;;;-7.93;100.00;99482.28;6214590;28;20168;-93
2022/12/14 06:49:59;;;;;;;24.00;10.25;;;;;;;-7.94;100.00;99482.31;6214024;28;20439;-93
2022/12/14 06:53:02;;;;;;;21.92;10.07;;;;;;;-7.94;100.00;99485.66;6221627;28;20054;-92
2022/12/14 06:56:17;;;;;;;24.25;11.77;;;;;;;-7.93;100.00;99487.31;6199382;28;20521;-92
2022/12/14 06:59:19;;;;;;;21.05;10.10;;;;;;;-7.94;100.00;99483.16;6199589;28;20479;-93
2022/12/14 07:02:20;;;;;;;18.42;9.75;;;;;;;-7.90;100.00;99477.22;6203353;28;20049;-92
2022/12/14 07:05:22;;;;;;;21.40;10.73;;;;;;;-7.88;100.00;99472.16;6204622;28;20049;-92
2022/12/14 07:08:26;;;;;;;17.23;9.35;;;;;;;-7.87;100.00;99467.09;6199597;28;20483;-93
2022/12/14 07:11:28;;;;;;;19.88;9.75;;;;;;;-7.86;100.00;99465.41;6205589;28;20074;-92
2022/12/14 07:14:30;;;;;;;21.05;10.27;;;;;;;-7.85;100.00;99467.03;6205991;28;20041;-92
2022/12/14 07:17:34;;;;;;;16.67;9.85;;;;;;;-7.87;100.00;99468.78;6205040;28;20517;-92
2022/12/14 07:20:36;;;;;;;20.23;9.20;;;;;;;-7.87;100.00;99461.25;6218840;28;20053;-93
2022/12/14 07:23:39;;;;;;;18.52;9.75;;;;;;;-7.86;100.00;99460.38;6202672;28;20705;-93
2022/12/14 07:26:41;;;;;;;21.48;10.07;;;;;;;-7.88;100.00;99454.56;6222619;28;20440;-93
2022/12/14 07:29:43;;;;;;;15.95;9.60;;;;;;;-7.84;100.00;99456.97;6208571;28;20041;-93
2022/12/14 07:32:45;;;;;;;20.23;9.13;;;;;;;-7.83;100.00;99452.78;6202719;28;20038;-93
2022/12/14 07:35:47;;;;;;;22.13;9.77;;;;;;;-7.78;100.00;99458.53;6216884;28;20046;-92
2022/12/14 07:38:50;;;;;;;20.38;10.13;;;;;;;-7.75;100.00;99455.13;6204708;28;20034;-92
2022/12/14 07:41:53;;;;;;;20.40;9.80;;;;;;;-7.78;100.00;99450.19;6199923;28;20045;-92
2022/12/14 07:44:55;;;;;;;17.73;9.43;;;;;;;-7.76;100.00;99450.97;6198390;28;20038;-92
2022/12/14 07:47:56;;;;;;;18.17;9.60;;;;;;;-7.72;100.00;99455.91;6199709;28;20069;-92
2022/12/14 07:51:08;;;;;;;24.08;10.60;;;;;;;-7.71;100.00;99439.97;6196100;28;20049;-92
2022/12/14 07:54:10;;;;;;;19.65;9.40;;;;;;;-7.74;100.00;99449.25;6211890;28;20057;-92
2022/12/14 07:57:12;;;;;;;19.73;10.45;;;;;;;-7.74;100.00;99450.06;6200420;28;20073;-92
2022/12/14 08:00:14;;;;;;;22.33;11.23;;;;;;;-7.77;100.00;99435.09;6195897;28;20492;-92
2022/12/14 08:03:16;;;;;;;19.40;11.18;;;;;;;-7.72;100.00;99440.81;6197846;28;20042;-92
2022/12/14 08:06:20;;;;;;;24.05;10.60;;;;;;;-7.76;100.00;99441.75;6206788;28;20188;-92
2022/12/14 08:09:22;;;;;;;21.90;10.75;;;;;;;-7.74;100.00;99437.53;6190857;28;20107;-92
2022/12/14 08:12:23;;;;;;;20.35;10.75;;;;;;;-7.70;100.00;99446.66;6199470;28;20507;-92
2022/12/14 08:15:25;;;;;;;21.33;11.02;;;;;;;-7.72;100.00;99442.53;6191274;28;20361;-93
2022/12/14 08:18:27;;;;;;;22.25;11.13;;;;;;;-7.69;100.00;99444.97;6209084;28;20061;-92
2022/12/14 08:21:28;;;;;;;22.10;11.43;;;;;;;-7.64;100.00;99445.69;6193205;28;20404;-92
2022/12/14 08:24:30;;;;;;;17.42;10.00;;;;;;;-7.54;100.00;99438.75;6205299;28;20046;-92
2022/12/14 08:27:33;;;;;;;20.75;9.95;;;;;;;-7.47;100.00;99442.78;6203502;28;20050;-92
2022/12/14 08:30:41;;;;;;;20.38;10.18;;;;;;;-7.42;100.00;99439.31;6195306;28;20550;-92
2022/12/14 08:33:44;;;;;;;20.55;10.93;;;;;;;-7.38;100.00;99440.03;6206875;28;20073;-92
2022/12/14 08:36:46;;;;;;;21.27;10.43;;;;;;;-7.34;100.00;99430.75;6207087;28;20042;-93
2022/12/14 08:39:48;;;;;;;23.08;10.35;;;;;;;-7.26;100.00;99434.72;6200844;28;20111;-92
2022/12/14 08:42:50;;;;;;;22.83;11.00;;;;;;;-7.20;100.00;99438.81;6194114;28;20507;-92
2022/12/14 08:45:54;;;;;;;23.83;10.05;;;;;;;-7.22;100.00;99436.31;6202528;28;20042;-92
2022/12/14 08:48:56;;;;;;;18.60;9.52;;;;;;;-7.21;100.00;99439.66;6201650;28;20062;-91
2022/12/14 08:51:58;;;;;;;19.45;9.90;;;;;;;-7.18;100.00;99440.41;6202275;28;20037;-92
2022/12/14 08:55:00;;;;;;;18.20;10.18;;;;;;;-7.08;100.00;99440.19;6205240;28;20042;-92
2022/12/14 08:58:01;;;;;;;19.15;9.82;;;;;;;-7.08;100.00;99428.47;6212550;28;20042;-92
2022/12/14 09:01:17;;;;;;;22.55;10.15;;;;;;;-7.10;100.00;99429.31;6199754;28;20046;-92
2022/12/14 09:04:19;;;;;;;18.45;9.77;;;;;;;-7.19;100.00;99431.22;6210683;28;20077;-92
2022/12/14 09:07:21;;;;;;;17.95;9.63;;;;;;;-7.21;100.00;99427.09;6197759;28;20080;-92
2022/12/14 09:10:22;;;;;;;20.63;10.77;;;;;;;-7.29;100.00;99424.75;6200096;28;20500;-91
2022/12/14 09:13:24;;;;;;;17.08;9.75;;;;;;;-7.30;100.00;99428.16;6207319;28;20046;-92
2022/12/14 09:16:27;;;;;;;19.17;9.60;;;;;;;-7.28;100.00;99423.88;6204197;28;20045;-92
2022/12/14 09:19:29;;;;;;;14.50;8.98;;;;;;;-7.28;100.00;99423.06;6202945;28;20136;-92
2022/12/14 09:22:31;;;;;;;17.73;9.35;;;;;;;-7.27;100.00;99423.03;6202933;28;20045;-92
2022/12/14 09:25:32;;;;;;;18.58;9.90;;;;;;;-7.25;100.00;99426.34;6200176;28;20540;-92
2022/12/14 09:28:36;;;;;;;22.70;9.88;;;;;;;-7.25;100.00;99428.84;6206091;28;20041;-92
2022/12/14 09:31:38;;;;;;;20.95;10.68;;;;;;;-7.25;100.00;99428.84;6224867;28;20085;-92
2022/12/14 09:34:40;;;;;;;17.45;9.48;;;;;;;-7.23;100.00;99429.66;6195765;28;20513;-92
2022/12/14 09:37:42;;;;;;;18.40;8.75;;;;;;;-7.21;100.00;99430.41;6205697;28;20057;-92
2022/12/14 09:40:51;;;;;;;20.45;9.48;;;;;;;-7.26;100.00;99427.19;6197251;28;20073;-92
2022/12/14 09:44:06;;;;;;;18.40;9.70;;;;;;;-7.25;100.00;99420.50;6199060;28;20057;-92
2022/12/14 09:47:33;;;;;;;21.35;10.05;;;;;;;-7.29;100.00;99426.44;6209380;28;20046;-92
2022/12/14 09:50:36;;;;;;;19.33;9.75;;;;;;;-7.29;100.00;99414.69;6199965;28;20116;-92
2022/12/14 09:53:40;;;;;;;19.40;10.30;;;;;;;-7.27;100.00;99414.69;6210474;28;20045;-92
2022/12/14 09:56:43;;;;;;;19.83;10.65;;;;;;;-7.27;100.00;99414.69;6192852;28;20050;-92
2022/12/14 09:59:44;;;;;;;17.98;9.40;;;;;;;-7.27;100.00;99402.94;6191270;28;20061;-92
2022/12/14 10:02:55;;;;;;;20.25;10.07;;;;;;;-7.27;100.00;99402.94;6192987;28;20167;-92
2022/12/14 10:06:41;;;;;;;16.55;9.75;;;;;;;-7.27;100.00;99412.16;6191821;28;20047;-92
2022/12/14 10:10:04;;;;;;;17.67;9.32;;;;;;;-7.28;100.00;99406.28;6207442;28;20364;-92
2022/12/14 10:13:38;;;;;;;17.50;9.38;;;;;;;-7.26;100.00;99409.59;6213664;28;20046;-92
2022/12/14 10:17:13;;;;;;;20.67;10.30;;;;;;;-7.28;100.00;99400.44;6198643;28;20047;-92
2022/12/14 10:20:47;;;;;;;16.52;7.95;;;;;;;-7.24;100.00;99404.53;6195031;28;20386;-91
2022/12/14 10:23:56;;;;;;;18.15;9.27;;;;;;;-7.23;100.00;99402.00;6191867;28;20439;-92
2022/12/14 10:27:00;;;;;;;16.20;8.90;;;;;;;-7.20;100.00;99396.06;6191893;28;20057;-92
2022/12/14 10:30:04;;;;;;;18.83;9.82;;;;;;;-7.16;100.00;99392.59;6218068;28;20097;-92
2022/12/14 10:33:30;;;;;;;17.65;9.57;;;;;;;-7.14;100.00;99390.88;6196330;28;20698;-92
2022/12/14 10:36:50;;;;;;;21.13;9.93;;;;;;;-7.06;100.00;99400.72;6209402;28;20046;-92
2022/12/14 10:40:13;;;;;;;18.98;10.05;;;;;;;-7.01;100.00;99401.44;6207852;28;20104;-92
2022/12/14 10:43:56;;;;;;;19.23;10.07;;;;;;;-7.01;100.00;99402.25;6201287;28;20038;-92
2022/12/14 10:46:57;;;;;;;21.98;11.15;;;;;;;-6.99;100.00;99407.25;6199226;28;20045;-91
2022/12/14 10:50:23;;;;;;;23.52;10.30;;;;;;;-6.92;100.00;99406.25;6199025;28;20408;-91
2022/12/14 10:53:31;;;;;;;22.48;11.20;;;;;;;-6.90;100.00;99402.00;6207697;28;20069;-91
2022/12/14 10:56:42;;;;;;;21.33;10.48;;;;;;;-6.84;100.00;99396.81;6191755;28;20476;-91
2022/12/14 10:59:50;;;;;;;18.55;10.23;;;;;;;-6.78;100.00;99395.81;6212091;28;20408;-92
2022/12/14 11:03:16;;;;;;;17.85;9.23;;;;;;;-6.68;100.00;99398.91;6203591;28;20034;-91
2022/12/14 11:06:18;;;;;;;17.92;10.05;;;;;;;-6.64;100.00;99377.84;6202115;28;20050;-91
2022/12/14 11:09:22;;;;;;;17.10;9.30;;;;;;;-6.61;100.00;99387.81;6198785;28;20602;-91
2022/12/14 11:12:26;;;;;;;14.82;9.50;;;;;;;-6.57;100.00;99384.34;6199525;28;20501;-91
2022/12/14 11:15:35;;;;;;;16.17;9.15;;;;;;;-6.52;100.00;99385.06;6194083;28;20599;-91
2022/12/14 11:18:37;;;;;;;20.42;10.38;;;;;;;-6.50;100.00;99376.59;6202372;28;20057;-91
2022/12/14 11:21:39;;;;;;;18.23;8.45;;;;;;;-6.45;100.00;99365.59;6165869;28;1089013;-91
2022/12/14 11:24:46;;;;;;;15.90;8.57;;;;;;;-6.38;100.00;99367.88;6209550;28;20053;-91
2022/12/14 11:27:48;;;;;;;14.68;9.20;;;;;;;-6.36;100.00;99371.19;6203619;28;20651;-91
2022/12/14 11:31:10;;;;;;;14.82;8.85;;;;;;;-6.32;100.00;99372.72;6203311;28;20586;-91
2022/12/14 11:34:33;;;;;;;15.40;8.13;;;;;;;-6.20;100.00;99373.25;6201054;28;20046;-90
2022/12/14 11:37:35;;;;;;;17.30;9.38;;;;;;;-6.14;100.00;99373.06;6204453;28;20127;-90
2022/12/14 11:40:37;;;;;;;15.50;7.88;;;;;;;-6.14;100.00;99358.75;6206974;28;20088;-90
2022/12/14 11:43:39;;;;;;;15.57;8.40;;;;;;;-6.10;100.00;99374.63;6200388;28;20116;-90
2022/12/14 11:46:55;;;;;;;16.48;8.30;;;;;;;-6.03;100.00;99361.00;6203249;28;20042;-90
2022/12/14 11:49:57;;;;;;;16.15;9.13;;;;;;;-5.95;100.00;99359.06;6207813;28;20034;-91
2022/12/14 11:53:13;;;;;;;17.20;8.55;;;;;;;-5.89;100.00;99363.03;6208552;28;20041;-90
2022/12/14 11:56:17;;;;;;;16.85;8.00;;;;;;;-5.85;100.00;99365.44;6194840;28;20121;-91
2022/12/14 11:59:19;;;;;;;15.95;7.75;;;;;;;-5.79;100.00;99363.59;6196375;28;20049;-90
2022/12/14 12:02:34;;;;;;;13.60;6.78;;;;;;;-5.77;100.00;99360.16;6205563;28;20038;-90
2022/12/14 12:05:43;;;;;;;14.23;7.32;;;;;;;-5.73;100.00;99355.84;6200616;28;20046;-90
2022/12/14 12:08:46;;;;;;;14.90;7.50;;;;;;;-5.72;100.00;99357.50;6209020;28;20164;-90
2022/12/14 12:11:48;;;;;;;15.07;7.68;;;;;;;-5.70;100.00;99359.09;6205922;28;20050;-90
2022/12/14 12:14:57;;;;;;;17.65;8.27;;;;;;;-5.67;100.00;99348.91;6200379;28;20567;-91
2022/12/14 12:18:04;;;;;;;14.05;7.78;;;;;;;-5.64;100.00;99353.03;6206072;28;20044;-90
2022/12/14 12:21:17;;;;;;;13.70;7.47;;;;;;;-5.63;100.00;99354.69;6205088;28;20045;-91
2022/12/14 12:24:28;;;;;;;14.95;6.97;;;;;;;-5.58;100.00;99357.06;6205546;28;20060;-90
2022/12/14 12:27:31;;;;;;;17.10;6.80;;;;;;;-5.57;100.00;99341.06;6206284;28;20050;-91
2022/12/14 12:30:38;;;;;;;13.60;7.03;;;;;;;-5.55;100.00;99341.84;6201611;28;20041;-91
2022/12/14 12:33:50;;;;;;;14.38;6.85;;;;;;;-5.56;100.00;99340.19;6198785;28;20050;-90
2022/12/14 12:36:53;;;;;;;11.57;6.60;;;;;;;-5.56;100.00;99340.19;6202676;28;20096;-90
2022/12/14 12:40:32;;;;;;;14.15;7.15;;;;;;;-5.53;100.00;99338.38;6194691;28;20041;-90
2022/12/14 12:43:41;;;;;;;12.43;7.55;;;;;;;-5.53;100.00;99340.91;6201377;28;20061;-90
2022/12/14 12:47:05;;;;;;;11.13;6.63;;;;;;;-5.52;100.00;99345.06;6203358;28;20399;-90
2022/12/14 12:50:31;;;;;;;14.65;7.78;;;;;;;-5.52;100.00;99349.28;6198291;28;20042;-90
2022/12/14 12:54:03;;;;;;;14.18;7.15;;;;;;;-5.53;100.00;99351.00;6208997;28;20168;-90
2022/12/14 12:57:07;;;;;;;15.00;7.18;;;;;;;-5.56;100.00;99346.06;6196834;28;20077;-90
2022/12/14 13:00:23;;;;;;;11.20;6.90;;;;;;;-5.59;100.00;99358.75;6196291;28;20053;-90
2022/12/14 13:03:36;;;;;;;12.52;6.43;;;;;;;-5.62;100.00;99353.81;6199518;28;20054;-90
2022/12/14 13:07:03;;;;;;;11.93;6.05;;;;;;;-5.66;100.00;99345.53;6215769;28;20150;-90
2022/12/14 13:10:12;;;;;;;12.40;6.60;;;;;;;-5.67;100.00;99343.88;6202437;28;20042;-91
2022/12/14 13:13:20;;;;;;;11.02;7.10;;;;;;;-5.58;100.00;99326.81;6206072;28;20125;-90
2022/12/14 13:16:36;;;;;;;12.23;6.97;;;;;;;-5.62;100.00;99331.94;6200303;28;20180;-90
2022/12/14 13:19:48;;;;;;;12.25;6.40;;;;;;;-5.58;100.00;99319.25;6207483;28;20049;-90
2022/12/14 13:22:55;;;;;;;11.73;6.65;;;;;;;-5.62;100.00;99316.00;6210014;28;20504;-90
2022/12/14 13:26:15;;;;;;;14.18;6.38;;;;;;;-5.63;100.00;99320.22;6203663;28;20038;-90
2022/12/14 13:30:02;;;;;;;12.73;6.88;;;;;;;-5.64;100.00;99316.06;6200801;28;20057;-90
2022/12/14 13:33:40;;;;;;;13.73;6.88;;;;;;;-5.62;100.00;99310.94;6215115;28;20054;-90
2022/12/14 13:37:03;;;;;;;16.75;6.85;;;;;;;-5.63;100.00;99315.19;6205354;28;20033;-88
2022/12/14 13:40:44;;;;;;;12.23;6.53;;;;;;;-5.63;100.00;99309.31;6198882;28;20045;-88
2022/12/14 13:44:20;;;;;;;16.67;8.00;;;;;;;-5.68;100.00;99313.69;6148845;28;20055;-88
2022/12/14 13:47:43;;;;;;;11.65;6.35;;;;;;;-5.68;100.00;99313.69;6135378;28;20412;-88
2022/12/14 13:50:53;;;;;;;13.30;7.00;;;;;;;-5.70;100.00;99307.88;6139274;28;20090;-88
2022/12/14 13:54:06;;;;;;;12.63;7.40;;;;;;;-5.74;100.00;99313.88;6138431;29;20080;-88
2022/12/14 13:57:22;;;;;;;13.70;7.47;;;;;;;-5.78;100.00;99304.78;6135266;28;20265;-88
2022/12/14 14:00:43;;;;;;;9.93;6.45;;;;;;;-5.79;100.00;99311.50;6135825;28;20065;-88
2022/12/14 14:03:47;;;;;;;15.07;6.95;;;;;;;-5.78;100.00;99313.16;6138600;28;20039;-88
2022/12/14 14:07:15;;;;;;;17.50;7.25;;;;;;;-5.80;100.00;99316.59;6134290;28;20058;-88
2022/12/14 14:10:29;;;;;;;11.43;6.65;;;;;;;-5.80;100.00;99314.06;6109483;29;20055;-88
2022/12/14 14:13:31;;;;;;;10.77;6.53;;;;;;;-5.81;100.00;99314.94;6113716;29;20466;-88
2022/12/14 14:16:50;;;;;;;13.32;7.50;;;;;;;-5.82;100.00;99314.13;6108195;29;20122;-88
2022/12/14 14:19:55;;;;;;;12.95;6.60;;;;;;;-5.86;100.00;99318.44;6125353;28;20066;-88
2022/12/14 14:23:15;;;;;;;14.75;7.72;;;;;;;-5.88;100.00;99316.84;6156011;28;20812;-88
2022/12/14 14:26:36;;;;;;;15.77;7.40;;;;;;;-5.90;100.00;99319.41;6156868;28;20046;-88
2022/12/14 14:29:45;;;;;;;14.93;7.28;;;;;;;-5.95;100.00;99316.22;6156944;28;20130;-88
2022/12/14 14:32:47;;;;;;;12.43;6.75;;;;;;;-5.99;100.00;99317.19;6148675;28;20066;-88
2022/12/14 14:35:49;;;;;;;13.77;7.05;;;;;;;-6.04;100.00;99318.19;6157734;28;20089;-88
2022/12/14 14:38:53;;;;;;;13.63;7.32;;;;;;;-6.08;100.00;99320.00;6153100;28;20078;-88
2022/12/14 14:41:56;;;;;;;17.45;7.45;;;;;;;-6.14;100.00;99320.19;6153103;28;20069;-88
2022/12/14 14:45:02;;;;;;;15.25;7.45;;;;;;;-6.16;100.00;99331.97;6156252;28;20517;-88